sensor_id;sensor_type;location;lat;lon;timestamp;temperature;humidity
20891;DHT22;10605;52.968;8.844;2024-02-28T00:02:25;1.30;99.90
20891;DHT22;10605;52.968;8.844;2024-02-28T00:04:53;1.20;99.90
20891;DHT22;10605;52.968;8.844;2024-02-28T00:07:19;1.20;99.90
20891;DHT22;10605;52.968;8.844;2024-02-28T00:09:44;1.30;99.90
20891;DHT22;10605;52.968;8.844;2024-02-28T00:12:10;1.40;99.90
20891;DHT22;10605;52.968;8.844;2024-02-28T00:14:36;1.50;99.90
20891;DHT22;10605;52.968;8.844;2024-02-28T00:17:01;1.50;99.90
20891;DHT22;10605;52.968;8.844;2024-02-28T00:19:27;1.30;99.90
20891;DHT22;10605;52.968;8.844;2024-02-28T00:21:52;1.20;99.90
20891;DHT22;10605;52.968;8.844;2024-02-28T00:24:18;1.30;99.90
20891;DHT22;10605;52.968;8.844;2024-02-28T00:26:44;1.40;99.90
20891;DHT22;10605;52.968;8.844;2024-02-28T00:29:10;1.40;99.90
20891;DHT22;10605;52.968;8.844;2024-02-28T00:31:35;1.40;99.90
20891;DHT22;10605;52.968;8.844;2024-02-28T00:34:01;1.40;99.90
20891;DHT22;10605;52.968;8.844;2024-02-28T00:36:27;1.40;99.90
20891;DHT22;10605;52.968;8.844;2024-02-28T00:38:53;1.30;99.90
20891;DHT22;10605;52.968;8.844;2024-02-28T00:41:18;1.40;99.90
20891;DHT22;10605;52.968;8.844;2024-02-28T00:43:44;1.30;99.90
20891;DHT22;10605;52.968;8.844;2024-02-28T00:46:09;1.30;99.90
20891;DHT22;10605;52.968;8.844;2024-02-28T00:48:38;1.30;99.90
20891;DHT22;10605;52.968;8.844;2024-02-28T00:51:04;1.20;99.90
20891;DHT22;10605;52.968;8.844;2024-02-28T00:53:30;1.10;99.90
20891;DHT22;10605;52.968;8.844;2024-02-28T00:55:56;1.00;99.90
20891;DHT22;10605;52.968;8.844;2024-02-28T00:58:22;0.80;99.90
20891;DHT22;10605;52.968;8.844;2024-02-28T01:00:48;0.80;99.90
20891;DHT22;10605;52.968;8.844;2024-02-28T01:03:14;0.80;99.90
20891;DHT22;10605;52.968;8.844;2024-02-28T01:05:42;0.80;99.90
20891;DHT22;10605;52.968;8.844;2024-02-28T01:08:08;0.90;99.90
20891;DHT22;10605;52.968;8.844;2024-02-28T01:10:34;1.00;99.90
20891;DHT22;10605;52.968;8.844;2024-02-28T01:13:00;1.00;99.90
20891;DHT22;10605;52.968;8.844;2024-02-28T01:15:25;1.00;99.90
20891;DHT22;10605;52.968;8.844;2024-02-28T01:17:51;0.90;99.90
20891;DHT22;10605;52.968;8.844;2024-02-28T01:20:17;0.60;99.90
20891;DHT22;10605;52.968;8.844;2024-02-28T01:22:42;0.50;99.90
20891;DHT22;10605;52.968;8.844;2024-02-28T01:25:09;0.50;99.90
20891;DHT22;10605;52.968;8.844;2024-02-28T01:27:34;0.50;99.90
20891;DHT22;10605;52.968;8.844;2024-02-28T01:30:01;0.40;99.90
20891;DHT22;10605;52.968;8.844;2024-02-28T01:32:27;0.40;99.90
20891;DHT22;10605;52.968;8.844;2024-02-28T01:34:53;0.30;99.90
20891;DHT22;10605;52.968;8.844;2024-02-28T01:37:19;0.30;99.90
20891;DHT22;10605;52.968;8.844;2024-02-28T01:39:44;0.30;99.90
20891;DHT22;10605;52.968;8.844;2024-02-28T01:42:10;0.20;99.90
20891;DHT22;10605;52.968;8.844;2024-02-28T01:44:43;0.20;99.90
20891;DHT22;10605;52.968;8.844;2024-02-28T01:47:09;0.10;99.90
20891;DHT22;10605;52.968;8.844;2024-02-28T01:49:35;0.10;99.90
20891;DHT22;10605;52.968;8.844;2024-02-28T01:52:01;0.20;99.90
20891;DHT22;10605;52.968;8.844;2024-02-28T01:54:28;0.10;99.90
20891;DHT22;10605;52.968;8.844;2024-02-28T01:56:55;0.10;99.90
20891;DHT22;10605;52.968;8.844;2024-02-28T01:59:23;0.10;99.90
20891;DHT22;10605;52.968;8.844;2024-02-28T02:01:50;0.00;99.90
20891;DHT22;10605;52.968;8.844;2024-02-28T02:04:16;0.10;99.90
20891;DHT22;10605;52.968;8.844;2024-02-28T02:06:43;0.10;99.90
20891;DHT22;10605;52.968;8.844;2024-02-28T02:09:09;0.10;99.90
20891;DHT22;10605;52.968;8.844;2024-02-28T02:11:35;0.00;99.90
20891;DHT22;10605;52.968;8.844;2024-02-28T02:14:01;0.00;99.90
20891;DHT22;10605;52.968;8.844;2024-02-28T02:16:27;-0.10;99.90
20891;DHT22;10605;52.968;8.844;2024-02-28T02:18:53;0.00;99.90
20891;DHT22;10605;52.968;8.844;2024-02-28T02:21:22;0.00;99.90
20891;DHT22;10605;52.968;8.844;2024-02-28T02:23:48;0.00;99.90
20891;DHT22;10605;52.968;8.844;2024-02-28T02:26:14;0.00;99.90
20891;DHT22;10605;52.968;8.844;2024-02-28T02:28:41;0.10;99.90
20891;DHT22;10605;52.968;8.844;2024-02-28T02:31:07;0.00;99.90
20891;DHT22;10605;52.968;8.844;2024-02-28T02:33:33;-0.10;99.90
20891;DHT22;10605;52.968;8.844;2024-02-28T02:35:59;-0.10;99.90
20891;DHT22;10605;52.968;8.844;2024-02-28T02:38:24;-0.10;99.90
20891;DHT22;10605;52.968;8.844;2024-02-28T02:40:51;-0.10;99.90
20891;DHT22;10605;52.968;8.844;2024-02-28T02:43:17;-0.10;99.90
20891;DHT22;10605;52.968;8.844;2024-02-28T02:45:43;0.00;99.90
20891;DHT22;10605;52.968;8.844;2024-02-28T02:48:11;0.00;99.90
20891;DHT22;10605;52.968;8.844;2024-02-28T02:50:37;0.10;99.90
20891;DHT22;10605;52.968;8.844;2024-02-28T02:53:03;0.30;99.90
20891;DHT22;10605;52.968;8.844;2024-02-28T02:55:29;0.40;99.90
20891;DHT22;10605;52.968;8.844;2024-02-28T02:57:54;0.40;99.90
20891;DHT22;10605;52.968;8.844;2024-02-28T03:00:21;0.50;99.90
20891;DHT22;10605;52.968;8.844;2024-02-28T03:02:46;0.60;99.90
20891;DHT22;10605;52.968;8.844;2024-02-28T03:05:12;0.50;99.90
20891;DHT22;10605;52.968;8.844;2024-02-28T03:07:38;0.60;99.90
20891;DHT22;10605;52.968;8.844;2024-02-28T03:10:04;0.60;99.90
20891;DHT22;10605;52.968;8.844;2024-02-28T03:12:30;0.70;99.90
20891;DHT22;10605;52.968;8.844;2024-02-28T03:14:56;0.70;99.90
20891;DHT22;10605;52.968;8.844;2024-02-28T03:17:22;0.80;99.90
20891;DHT22;10605;52.968;8.844;2024-02-28T03:19:48;0.90;99.90
20891;DHT22;10605;52.968;8.844;2024-02-28T03:22:14;0.90;99.90
20891;DHT22;10605;52.968;8.844;2024-02-28T03:24:40;1.00;99.90
20891;DHT22;10605;52.968;8.844;2024-02-28T03:27:05;1.10;99.90
20891;DHT22;10605;52.968;8.844;2024-02-28T03:29:31;1.10;99.90
20891;DHT22;10605;52.968;8.844;2024-02-28T03:31:58;1.00;99.90
20891;DHT22;10605;52.968;8.844;2024-02-28T03:34:24;1.00;99.90
20891;DHT22;10605;52.968;8.844;2024-02-28T03:36:50;1.00;99.90
20891;DHT22;10605;52.968;8.844;2024-02-28T03:39:16;1.10;99.90
20891;DHT22;10605;52.968;8.844;2024-02-28T03:41:42;1.10;99.90
20891;DHT22;10605;52.968;8.844;2024-02-28T03:44:07;1.10;99.90
20891;DHT22;10605;52.968;8.844;2024-02-28T03:46:33;1.20;99.90
20891;DHT22;10605;52.968;8.844;2024-02-28T03:48:59;1.20;99.90
20891;DHT22;10605;52.968;8.844;2024-02-28T03:51:24;1.20;99.90
20891;DHT22;10605;52.968;8.844;2024-02-28T03:53:50;1.20;99.90
20891;DHT22;10605;52.968;8.844;2024-02-28T03:56:26;1.20;99.90
20891;DHT22;10605;52.968;8.844;2024-02-28T03:58:52;1.30;99.90
20891;DHT22;10605;52.968;8.844;2024-02-28T04:01:19;1.20;99.90
20891;DHT22;10605;52.968;8.844;2024-02-28T04:03:45;1.20;99.90
20891;DHT22;10605;52.968;8.844;2024-02-28T04:06:11;1.20;99.90
20891;DHT22;10605;52.968;8.844;2024-02-28T04:08:37;1.30;99.90
20891;DHT22;10605;52.968;8.844;2024-02-28T04:11:03;1.30;99.90
20891;DHT22;10605;52.968;8.844;2024-02-28T04:13:29;1.30;99.90
20891;DHT22;10605;52.968;8.844;2024-02-28T04:15:55;1.30;99.90
20891;DHT22;10605;52.968;8.844;2024-02-28T04:18:21;1.30;99.90
20891;DHT22;10605;52.968;8.844;2024-02-28T04:20:47;1.30;99.90
20891;DHT22;10605;52.968;8.844;2024-02-28T04:23:12;1.20;99.90
20891;DHT22;10605;52.968;8.844;2024-02-28T04:25:38;1.20;99.90
20891;DHT22;10605;52.968;8.844;2024-02-28T04:28:06;1.30;99.90
20891;DHT22;10605;52.968;8.844;2024-02-28T04:30:34;1.20;99.90
20891;DHT22;10605;52.968;8.844;2024-02-28T04:33:00;1.20;99.90
20891;DHT22;10605;52.968;8.844;2024-02-28T04:35:25;1.10;99.90
20891;DHT22;10605;52.968;8.844;2024-02-28T04:37:51;1.10;99.90
20891;DHT22;10605;52.968;8.844;2024-02-28T04:40:17;1.00;99.90
20891;DHT22;10605;52.968;8.844;2024-02-28T04:42:43;0.90;99.90
20891;DHT22;10605;52.968;8.844;2024-02-28T04:45:09;0.90;99.90
20891;DHT22;10605;52.968;8.844;2024-02-28T04:47:35;0.90;99.90
20891;DHT22;10605;52.968;8.844;2024-02-28T04:50:01;0.90;99.90
20891;DHT22;10605;52.968;8.844;2024-02-28T04:52:30;0.80;99.90
20891;DHT22;10605;52.968;8.844;2024-02-28T04:54:56;0.90;99.90
20891;DHT22;10605;52.968;8.844;2024-02-28T04:57:21;0.80;99.90
20891;DHT22;10605;52.968;8.844;2024-02-28T04:59:47;0.90;99.90
20891;DHT22;10605;52.968;8.844;2024-02-28T05:02:13;1.00;99.90
20891;DHT22;10605;52.968;8.844;2024-02-28T05:04:38;1.10;99.90
20891;DHT22;10605;52.968;8.844;2024-02-28T05:07:04;1.20;99.90
20891;DHT22;10605;52.968;8.844;2024-02-28T05:09:32;1.30;99.90
20891;DHT22;10605;52.968;8.844;2024-02-28T05:11:58;1.20;99.90
20891;DHT22;10605;52.968;8.844;2024-02-28T05:14:24;1.30;99.90
20891;DHT22;10605;52.968;8.844;2024-02-28T05:16:50;1.30;99.90
20891;DHT22;10605;52.968;8.844;2024-02-28T05:19:16;1.40;99.90
20891;DHT22;10605;52.968;8.844;2024-02-28T05:21:44;1.40;99.90
20891;DHT22;10605;52.968;8.844;2024-02-28T05:24:10;1.40;99.90
20891;DHT22;10605;52.968;8.844;2024-02-28T05:26:36;1.40;99.90
20891;DHT22;10605;52.968;8.844;2024-02-28T05:29:03;1.50;99.90
20891;DHT22;10605;52.968;8.844;2024-02-28T05:31:29;1.50;99.90
20891;DHT22;10605;52.968;8.844;2024-02-28T05:33:57;1.50;99.90
20891;DHT22;10605;52.968;8.844;2024-02-28T05:36:24;1.40;99.90
20891;DHT22;10605;52.968;8.844;2024-02-28T05:38:51;1.30;99.90
20891;DHT22;10605;52.968;8.844;2024-02-28T05:41:17;1.30;99.90
20891;DHT22;10605;52.968;8.844;2024-02-28T05:43:43;1.30;99.90
20891;DHT22;10605;52.968;8.844;2024-02-28T05:46:09;1.30;99.90
20891;DHT22;10605;52.968;8.844;2024-02-28T05:48:35;1.30;99.90
20891;DHT22;10605;52.968;8.844;2024-02-28T05:51:02;1.40;99.90
20891;DHT22;10605;52.968;8.844;2024-02-28T05:53:29;1.40;99.90
20891;DHT22;10605;52.968;8.844;2024-02-28T05:55:58;1.40;99.90
20891;DHT22;10605;52.968;8.844;2024-02-28T05:58:23;1.40;99.90
20891;DHT22;10605;52.968;8.844;2024-02-28T06:00:51;1.30;99.90
20891;DHT22;10605;52.968;8.844;2024-02-28T06:03:17;1.30;99.90
20891;DHT22;10605;52.968;8.844;2024-02-28T06:05:42;1.30;99.90
20891;DHT22;10605;52.968;8.844;2024-02-28T06:08:08;1.30;99.90
20891;DHT22;10605;52.968;8.844;2024-02-28T06:10:34;1.30;99.90
20891;DHT22;10605;52.968;8.844;2024-02-28T06:13:00;1.40;99.90
20891;DHT22;10605;52.968;8.844;2024-02-28T06:15:26;1.50;99.90
20891;DHT22;10605;52.968;8.844;2024-02-28T06:17:52;1.40;99.90
20891;DHT22;10605;52.968;8.844;2024-02-28T06:20:17;1.30;99.90
20891;DHT22;10605;52.968;8.844;2024-02-28T06:22:43;1.40;99.90
20891;DHT22;10605;52.968;8.844;2024-02-28T06:25:09;1.30;99.90
20891;DHT22;10605;52.968;8.844;2024-02-28T06:27:43;1.30;99.90
20891;DHT22;10605;52.968;8.844;2024-02-28T06:30:09;1.30;99.90
20891;DHT22;10605;52.968;8.844;2024-02-28T06:32:35;1.30;99.90
20891;DHT22;10605;52.968;8.844;2024-02-28T06:35:01;1.30;99.90
20891;DHT22;10605;52.968;8.844;2024-02-28T06:37:26;1.40;99.90
20891;DHT22;10605;52.968;8.844;2024-02-28T06:39:53;1.40;99.90
20891;DHT22;10605;52.968;8.844;2024-02-28T06:42:19;1.50;99.90
20891;DHT22;10605;52.968;8.844;2024-02-28T06:44:44;1.50;99.90
20891;DHT22;10605;52.968;8.844;2024-02-28T06:47:10;1.50;99.90
20891;DHT22;10605;52.968;8.844;2024-02-28T06:49:35;1.50;99.90
20891;DHT22;10605;52.968;8.844;2024-02-28T06:52:01;1.50;99.90
20891;DHT22;10605;52.968;8.844;2024-02-28T06:54:27;1.50;99.90
20891;DHT22;10605;52.968;8.844;2024-02-28T06:56:54;1.60;99.90
20891;DHT22;10605;52.968;8.844;2024-02-28T06:59:20;1.70;99.90
20891;DHT22;10605;52.968;8.844;2024-02-28T07:01:46;1.80;99.90
20891;DHT22;10605;52.968;8.844;2024-02-28T07:04:12;1.70;99.90
20891;DHT22;10605;52.968;8.844;2024-02-28T07:06:37;1.80;99.90
20891;DHT22;10605;52.968;8.844;2024-02-28T07:09:03;1.80;99.90
20891;DHT22;10605;52.968;8.844;2024-02-28T07:11:29;1.90;99.90
20891;DHT22;10605;52.968;8.844;2024-02-28T07:13:55;2.00;99.90
20891;DHT22;10605;52.968;8.844;2024-02-28T07:16:23;2.00;99.90
20891;DHT22;10605;52.968;8.844;2024-02-28T07:18:48;2.20;99.90
20891;DHT22;10605;52.968;8.844;2024-02-28T07:21:14;2.20;99.90
20891;DHT22;10605;52.968;8.844;2024-02-28T07:23:40;2.20;99.90
20891;DHT22;10605;52.968;8.844;2024-02-28T07:26:08;2.10;99.90
20891;DHT22;10605;52.968;8.844;2024-02-28T07:28:34;2.30;99.90
20891;DHT22;10605;52.968;8.844;2024-02-28T07:30:59;2.40;99.90
20891;DHT22;10605;52.968;8.844;2024-02-28T07:33:25;2.40;99.90
20891;DHT22;10605;52.968;8.844;2024-02-28T07:35:52;2.50;99.90
20891;DHT22;10605;52.968;8.844;2024-02-28T07:38:18;2.60;99.90
20891;DHT22;10605;52.968;8.844;2024-02-28T07:40:47;2.80;99.90
20891;DHT22;10605;52.968;8.844;2024-02-28T07:43:13;2.80;99.90
20891;DHT22;10605;52.968;8.844;2024-02-28T07:45:39;2.80;99.90
20891;DHT22;10605;52.968;8.844;2024-02-28T07:48:06;3.00;99.90
20891;DHT22;10605;52.968;8.844;2024-02-28T07:50:32;3.10;99.90
20891;DHT22;10605;52.968;8.844;2024-02-28T07:52:57;3.20;99.90
20891;DHT22;10605;52.968;8.844;2024-02-28T07:55:23;3.40;99.90
20891;DHT22;10605;52.968;8.844;2024-02-28T07:57:53;3.70;99.90
20891;DHT22;10605;52.968;8.844;2024-02-28T08:00:18;4.20;99.90
20891;DHT22;10605;52.968;8.844;2024-02-28T08:02:45;4.60;99.90
20891;DHT22;10605;52.968;8.844;2024-02-28T08:05:11;4.70;99.90
20891;DHT22;10605;52.968;8.844;2024-02-28T08:07:37;4.80;99.90
20891;DHT22;10605;52.968;8.844;2024-02-28T08:10:03;4.60;99.90
20891;DHT22;10605;52.968;8.844;2024-02-28T08:12:31;4.50;99.90
20891;DHT22;10605;52.968;8.844;2024-02-28T08:14:58;4.30;99.90
20891;DHT22;10605;52.968;8.844;2024-02-28T08:17:23;4.40;99.90
20891;DHT22;10605;52.968;8.844;2024-02-28T08:19:49;4.40;99.90
20891;DHT22;10605;52.968;8.844;2024-02-28T08:22:15;4.20;99.90
20891;DHT22;10605;52.968;8.844;2024-02-28T08:24:41;4.00;99.90
20891;DHT22;10605;52.968;8.844;2024-02-28T08:27:07;4.00;99.90
20891;DHT22;10605;52.968;8.844;2024-02-28T08:29:32;4.10;99.90
20891;DHT22;10605;52.968;8.844;2024-02-28T08:32:01;4.20;99.90
20891;DHT22;10605;52.968;8.844;2024-02-28T08:34:27;4.30;99.90
20891;DHT22;10605;52.968;8.844;2024-02-28T08:36:52;4.50;99.90
20891;DHT22;10605;52.968;8.844;2024-02-28T08:39:18;4.70;99.90
20891;DHT22;10605;52.968;8.844;2024-02-28T08:41:44;4.70;99.90
20891;DHT22;10605;52.968;8.844;2024-02-28T08:44:10;4.90;99.90
20891;DHT22;10605;52.968;8.844;2024-02-28T08:46:36;5.20;99.90
20891;DHT22;10605;52.968;8.844;2024-02-28T08:49:02;5.40;99.90
20891;DHT22;10605;52.968;8.844;2024-02-28T08:51:28;5.60;99.90
20891;DHT22;10605;52.968;8.844;2024-02-28T08:53:54;5.90;99.90
20891;DHT22;10605;52.968;8.844;2024-02-28T08:56:21;5.70;99.90
20891;DHT22;10605;52.968;8.844;2024-02-28T08:58:46;5.50;99.90
20891;DHT22;10605;52.968;8.844;2024-02-28T09:01:15;5.30;99.90
20891;DHT22;10605;52.968;8.844;2024-02-28T09:03:41;5.40;99.90
20891;DHT22;10605;52.968;8.844;2024-02-28T09:06:06;5.70;99.90
20891;DHT22;10605;52.968;8.844;2024-02-28T09:08:32;5.80;99.90
20891;DHT22;10605;52.968;8.844;2024-02-28T09:10:58;5.90;99.90
20891;DHT22;10605;52.968;8.844;2024-02-28T09:13:24;5.80;99.90
20891;DHT22;10605;52.968;8.844;2024-02-28T09:15:49;5.60;99.90
20891;DHT22;10605;52.968;8.844;2024-02-28T09:18:16;5.60;99.90
20891;DHT22;10605;52.968;8.844;2024-02-28T09:20:41;5.70;99.90
20891;DHT22;10605;52.968;8.844;2024-02-28T09:23:07;5.80;99.90
20891;DHT22;10605;52.968;8.844;2024-02-28T09:25:33;5.60;99.90
20891;DHT22;10605;52.968;8.844;2024-02-28T09:28:00;5.70;99.90
20891;DHT22;10605;52.968;8.844;2024-02-28T09:30:25;5.90;99.90
20891;DHT22;10605;52.968;8.844;2024-02-28T09:32:51;6.10;99.90
20891;DHT22;10605;52.968;8.844;2024-02-28T09:35:17;6.30;99.90
20891;DHT22;10605;52.968;8.844;2024-02-28T09:37:42;6.70;99.90
20891;DHT22;10605;52.968;8.844;2024-02-28T09:40:09;6.80;99.90
20891;DHT22;10605;52.968;8.844;2024-02-28T09:42:36;7.10;99.90
20891;DHT22;10605;52.968;8.844;2024-02-28T09:45:02;7.30;99.90
20891;DHT22;10605;52.968;8.844;2024-02-28T09:47:29;7.40;99.90
20891;DHT22;10605;52.968;8.844;2024-02-28T09:49:57;7.40;99.90
20891;DHT22;10605;52.968;8.844;2024-02-28T09:52:24;7.50;99.90
20891;DHT22;10605;52.968;8.844;2024-02-28T09:54:50;6.90;99.90
20891;DHT22;10605;52.968;8.844;2024-02-28T09:57:16;6.60;99.90
20891;DHT22;10605;52.968;8.844;2024-02-28T09:59:43;6.40;99.90
20891;DHT22;10605;52.968;8.844;2024-02-28T10:02:10;6.30;99.90
20891;DHT22;10605;52.968;8.844;2024-02-28T10:04:37;6.40;99.90
20891;DHT22;10605;52.968;8.844;2024-02-28T10:07:16;6.60;99.90
20891;DHT22;10605;52.968;8.844;2024-02-28T10:09:42;6.70;99.90
20891;DHT22;10605;52.968;8.844;2024-02-28T10:12:08;6.40;99.90
20891;DHT22;10605;52.968;8.844;2024-02-28T10:14:34;6.20;99.90
20891;DHT22;10605;52.968;8.844;2024-02-28T10:16:59;6.50;99.90
20891;DHT22;10605;52.968;8.844;2024-02-28T10:19:25;6.70;99.90
20891;DHT22;10605;52.968;8.844;2024-02-28T10:21:52;6.90;99.90
20891;DHT22;10605;52.968;8.844;2024-02-28T10:24:18;6.90;99.90
20891;DHT22;10605;52.968;8.844;2024-02-28T10:26:47;6.90;99.90
20891;DHT22;10605;52.968;8.844;2024-02-28T10:29:24;7.10;99.90
20891;DHT22;10605;52.968;8.844;2024-02-28T10:31:51;6.80;99.90
20891;DHT22;10605;52.968;8.844;2024-02-28T10:34:17;6.60;99.90
20891;DHT22;10605;52.968;8.844;2024-02-28T10:36:44;6.60;99.90
20891;DHT22;10605;52.968;8.844;2024-02-28T10:39:11;6.50;99.90
20891;DHT22;10605;52.968;8.844;2024-02-28T10:41:40;6.40;99.90
20891;DHT22;10605;52.968;8.844;2024-02-28T10:44:07;6.30;99.90
20891;DHT22;10605;52.968;8.844;2024-02-28T10:46:33;6.30;99.90
20891;DHT22;10605;52.968;8.844;2024-02-28T10:48:58;6.30;99.90
20891;DHT22;10605;52.968;8.844;2024-02-28T10:51:25;6.20;99.90
20891;DHT22;10605;52.968;8.844;2024-02-28T10:54:09;6.20;99.90
20891;DHT22;10605;52.968;8.844;2024-02-28T10:56:42;6.10;99.90
20891;DHT22;10605;52.968;8.844;2024-02-28T10:59:10;6.20;99.90
20891;DHT22;10605;52.968;8.844;2024-02-28T11:01:45;6.20;99.90
20891;DHT22;10605;52.968;8.844;2024-02-28T11:04:12;6.20;99.90
20891;DHT22;10605;52.968;8.844;2024-02-28T11:06:55;6.40;99.90
20891;DHT22;10605;52.968;8.844;2024-02-28T11:09:22;6.50;99.90
20891;DHT22;10605;52.968;8.844;2024-02-28T11:11:51;6.60;99.90
20891;DHT22;10605;52.968;8.844;2024-02-28T11:14:18;6.70;99.90
20891;DHT22;10605;52.968;8.844;2024-02-28T11:16:48;6.70;99.90
20891;DHT22;10605;52.968;8.844;2024-02-28T11:19:21;6.90;99.90
20891;DHT22;10605;52.968;8.844;2024-02-28T11:21:53;6.90;99.90
20891;DHT22;10605;52.968;8.844;2024-02-28T11:24:23;6.70;99.90
20891;DHT22;10605;52.968;8.844;2024-02-28T11:26:49;6.70;99.90
20891;DHT22;10605;52.968;8.844;2024-02-28T11:29:16;6.40;99.90
20891;DHT22;10605;52.968;8.844;2024-02-28T11:31:42;6.50;99.90
20891;DHT22;10605;52.968;8.844;2024-02-28T11:34:08;6.60;99.90
20891;DHT22;10605;52.968;8.844;2024-02-28T11:36:36;6.50;99.90
20891;DHT22;10605;52.968;8.844;2024-02-28T11:39:03;6.50;99.90
20891;DHT22;10605;52.968;8.844;2024-02-28T11:41:29;6.60;99.90
20891;DHT22;10605;52.968;8.844;2024-02-28T11:43:54;6.60;99.90
20891;DHT22;10605;52.968;8.844;2024-02-28T11:46:20;6.40;99.90
20891;DHT22;10605;52.968;8.844;2024-02-28T11:48:46;6.40;99.90
20891;DHT22;10605;52.968;8.844;2024-02-28T11:51:11;6.40;99.90
20891;DHT22;10605;52.968;8.844;2024-02-28T11:53:37;6.40;99.90
20891;DHT22;10605;52.968;8.844;2024-02-28T11:56:03;6.50;99.90
20891;DHT22;10605;52.968;8.844;2024-02-28T11:58:29;6.50;99.90
20891;DHT22;10605;52.968;8.844;2024-02-28T12:00:55;6.60;99.90
20891;DHT22;10605;52.968;8.844;2024-02-28T12:03:24;6.60;99.90
20891;DHT22;10605;52.968;8.844;2024-02-28T12:05:55;6.90;99.90
20891;DHT22;10605;52.968;8.844;2024-02-28T12:08:21;6.90;99.90
20891;DHT22;10605;52.968;8.844;2024-02-28T12:10:47;6.80;99.90
20891;DHT22;10605;52.968;8.844;2024-02-28T12:13:20;7.00;99.90
20891;DHT22;10605;52.968;8.844;2024-02-28T12:15:46;7.20;99.90
20891;DHT22;10605;52.968;8.844;2024-02-28T12:18:14;7.50;99.90
20891;DHT22;10605;52.968;8.844;2024-02-28T12:20:40;7.90;99.90
20891;DHT22;10605;52.968;8.844;2024-02-28T12:23:06;8.40;99.90
20891;DHT22;10605;52.968;8.844;2024-02-28T12:25:33;9.00;99.90
20891;DHT22;10605;52.968;8.844;2024-02-28T12:28:00;9.50;99.90
20891;DHT22;10605;52.968;8.844;2024-02-28T12:30:26;9.80;99.90
20891;DHT22;10605;52.968;8.844;2024-02-28T12:32:52;9.70;99.90
20891;DHT22;10605;52.968;8.844;2024-02-28T12:35:18;9.90;99.90
20891;DHT22;10605;52.968;8.844;2024-02-28T12:37:43;9.80;99.90
20891;DHT22;10605;52.968;8.844;2024-02-28T12:40:09;9.60;99.90
20891;DHT22;10605;52.968;8.844;2024-02-28T12:42:35;9.70;99.90
20891;DHT22;10605;52.968;8.844;2024-02-28T12:45:02;9.80;99.90
20891;DHT22;10605;52.968;8.844;2024-02-28T12:47:28;9.50;99.90
20891;DHT22;10605;52.968;8.844;2024-02-28T12:49:57;9.50;99.90
20891;DHT22;10605;52.968;8.844;2024-02-28T12:52:22;9.50;99.90
20891;DHT22;10605;52.968;8.844;2024-02-28T12:54:48;9.30;99.90
20891;DHT22;10605;52.968;8.844;2024-02-28T12:57:14;9.30;99.90
20891;DHT22;10605;52.968;8.844;2024-02-28T12:59:42;9.10;99.90
20891;DHT22;10605;52.968;8.844;2024-02-28T13:02:09;8.90;99.90
20891;DHT22;10605;52.968;8.844;2024-02-28T13:04:35;8.70;99.90
20891;DHT22;10605;52.968;8.844;2024-02-28T13:07:01;8.80;99.90
20891;DHT22;10605;52.968;8.844;2024-02-28T13:09:26;8.70;99.90
20891;DHT22;10605;52.968;8.844;2024-02-28T13:11:52;8.60;99.90
20891;DHT22;10605;52.968;8.844;2024-02-28T13:14:18;8.40;99.90
20891;DHT22;10605;52.968;8.844;2024-02-28T13:16:44;8.20;99.90
20891;DHT22;10605;52.968;8.844;2024-02-28T13:19:10;8.20;99.90
20891;DHT22;10605;52.968;8.844;2024-02-28T13:21:36;8.00;99.90
20891;DHT22;10605;52.968;8.844;2024-02-28T13:24:02;7.90;99.90
20891;DHT22;10605;52.968;8.844;2024-02-28T13:26:29;7.80;99.90
20891;DHT22;10605;52.968;8.844;2024-02-28T13:28:55;7.90;99.90
20891;DHT22;10605;52.968;8.844;2024-02-28T13:31:21;7.90;99.90
20891;DHT22;10605;52.968;8.844;2024-02-28T13:33:46;7.90;99.90
20891;DHT22;10605;52.968;8.844;2024-02-28T13:36:13;7.80;99.90
20891;DHT22;10605;52.968;8.844;2024-02-28T13:38:39;7.80;99.90
20891;DHT22;10605;52.968;8.844;2024-02-28T13:41:05;7.70;99.90
20891;DHT22;10605;52.968;8.844;2024-02-28T13:43:31;7.70;99.90
20891;DHT22;10605;52.968;8.844;2024-02-28T13:45:56;7.90;99.90
20891;DHT22;10605;52.968;8.844;2024-02-28T13:48:26;7.80;99.90
20891;DHT22;10605;52.968;8.844;2024-02-28T13:50:56;7.80;99.90
20891;DHT22;10605;52.968;8.844;2024-02-28T13:53:21;7.80;99.90
20891;DHT22;10605;52.968;8.844;2024-02-28T13:55:47;7.90;99.90
20891;DHT22;10605;52.968;8.844;2024-02-28T13:58:14;7.80;99.90
20891;DHT22;10605;52.968;8.844;2024-02-28T14:00:44;7.90;99.90
20891;DHT22;10605;52.968;8.844;2024-02-28T14:03:13;8.10;99.90
20891;DHT22;10605;52.968;8.844;2024-02-28T14:05:39;8.20;99.90
20891;DHT22;10605;52.968;8.844;2024-02-28T14:08:06;8.00;99.90
20891;DHT22;10605;52.968;8.844;2024-02-28T14:10:37;7.80;99.90
20891;DHT22;10605;52.968;8.844;2024-02-28T14:13:03;8.00;99.90
20891;DHT22;10605;52.968;8.844;2024-02-28T14:15:28;8.00;99.90
20891;DHT22;10605;52.968;8.844;2024-02-28T14:17:54;8.10;99.90
20891;DHT22;10605;52.968;8.844;2024-02-28T14:20:20;8.20;99.90
20891;DHT22;10605;52.968;8.844;2024-02-28T14:22:45;8.10;99.90
20891;DHT22;10605;52.968;8.844;2024-02-28T14:25:12;8.20;99.90
20891;DHT22;10605;52.968;8.844;2024-02-28T14:27:39;8.20;99.90
20891;DHT22;10605;52.968;8.844;2024-02-28T14:30:07;8.30;99.90
20891;DHT22;10605;52.968;8.844;2024-02-28T14:32:38;8.20;99.90
20891;DHT22;10605;52.968;8.844;2024-02-28T14:35:05;8.20;99.90
20891;DHT22;10605;52.968;8.844;2024-02-28T14:37:32;8.30;99.90
20891;DHT22;10605;52.968;8.844;2024-02-28T14:39:59;8.20;99.90
20891;DHT22;10605;52.968;8.844;2024-02-28T14:42:26;8.30;99.90
20891;DHT22;10605;52.968;8.844;2024-02-28T14:44:52;8.10;99.90
20891;DHT22;10605;52.968;8.844;2024-02-28T14:47:21;8.00;99.90
20891;DHT22;10605;52.968;8.844;2024-02-28T14:49:47;8.10;99.90
20891;DHT22;10605;52.968;8.844;2024-02-28T14:52:13;8.00;99.90
20891;DHT22;10605;52.968;8.844;2024-02-28T14:54:40;8.00;99.90
20891;DHT22;10605;52.968;8.844;2024-02-28T14:57:06;8.00;99.90
20891;DHT22;10605;52.968;8.844;2024-02-28T14:59:32;7.90;99.90
20891;DHT22;10605;52.968;8.844;2024-02-28T15:01:59;8.00;99.90
20891;DHT22;10605;52.968;8.844;2024-02-28T15:04:25;8.00;99.90
20891;DHT22;10605;52.968;8.844;2024-02-28T15:06:50;8.10;99.90
20891;DHT22;10605;52.968;8.844;2024-02-28T15:09:18;8.00;99.90
20891;DHT22;10605;52.968;8.844;2024-02-28T15:11:47;7.90;99.90
20891;DHT22;10605;52.968;8.844;2024-02-28T15:14:13;8.00;99.90
20891;DHT22;10605;52.968;8.844;2024-02-28T15:16:39;8.00;99.90
20891;DHT22;10605;52.968;8.844;2024-02-28T15:19:05;8.20;99.90
20891;DHT22;10605;52.968;8.844;2024-02-28T15:21:31;8.20;99.90
20891;DHT22;10605;52.968;8.844;2024-02-28T15:23:56;8.20;99.90
20891;DHT22;10605;52.968;8.844;2024-02-28T15:26:22;8.10;99.90
20891;DHT22;10605;52.968;8.844;2024-02-28T15:28:48;8.20;99.90
20891;DHT22;10605;52.968;8.844;2024-02-28T15:31:13;8.10;99.90
20891;DHT22;10605;52.968;8.844;2024-02-28T15:33:39;8.00;99.90
20891;DHT22;10605;52.968;8.844;2024-02-28T15:36:05;8.00;99.90
20891;DHT22;10605;52.968;8.844;2024-02-28T15:38:31;7.90;99.90
20891;DHT22;10605;52.968;8.844;2024-02-28T15:40:57;7.90;99.90